Time;durP1;ratioP1;P1;durP2;ratioP2;P2;SDS_P1;SDS_P2;PMS_P1;PMS_P2;Temp;Humidity;BMP_temperature;BMP_pressure;BME280_temperature;BME280_humidity;BME280_pressure;Samples;Min_cycle;Max_cycle;Signal;HPM_P1;HPM_P2
2023/09/27 00:01:39;;;;;;;8.00;5.43;;;;;;;14.17;100.00;101817.84;4858967;29;20058;-91
2023/09/27 00:04:08;;;;;;;7.65;5.25;;;;;;;14.13;100.00;101820.16;4859170;29;20065;-91
2023/09/27 00:06:34;;;;;;;9.57;5.40;;;;;;;14.08;100.00;101825.41;4843618;29;20029;-90
2023/09/27 00:08:59;;;;;;;7.83;5.03;;;;;;;14.07;100.00;101829.22;4843695;29;20112;-91
2023/09/27 00:11:25;;;;;;;10.63;5.78;;;;;;;14.03;100.00;101828.81;4858345;29;20141;-91
2023/09/27 00:13:50;;;;;;;10.00;5.30;;;;;;;14.03;100.00;101823.34;4843709;29;20034;-91
2023/09/27 00:16:16;;;;;;;9.27;5.17;;;;;;;14.02;100.00;101820.81;4844985;29;20480;-91
2023/09/27 00:18:42;;;;;;;9.25;5.72;;;;;;;14.03;100.00;101822.50;4843813;29;20030;-91
2023/09/27 00:21:10;;;;;;;7.53;5.53;;;;;;;14.02;100.00;101829.00;4843750;29;20066;-91
2023/09/27 00:23:38;;;;;;;8.27;5.60;;;;;;;14.02;100.00;101831.75;4842702;29;20050;-91
2023/09/27 00:26:06;;;;;;;10.23;6.22;;;;;;;14.03;100.00;101833.44;4859172;29;20033;-91
2023/09/27 00:28:31;;;;;;;11.05;6.10;;;;;;;14.01;100.00;101821.88;4843441;29;20038;-91
2023/09/27 00:30:57;;;;;;;10.73;6.00;;;;;;;14.01;100.00;101830.06;4843762;29;20372;-91
2023/09/27 00:33:23;;;;;;;10.37;5.90;;;;;;;14.01;100.00;101825.47;4844530;29;20596;-91
2023/09/27 00:35:49;;;;;;;10.25;5.45;;;;;;;14.05;100.00;101828.59;4843034;29;20041;-90
2023/09/27 00:38:14;;;;;;;8.98;5.40;;;;;;;14.10;100.00;101827.94;4843331;29;20034;-91
2023/09/27 00:40:47;;;;;;;10.43;5.63;;;;;;;14.11;100.00;101822.25;4857490;29;20037;-91
2023/09/27 00:43:31;;;;;;;8.18;6.40;;;;;;;14.12;100.00;101823.13;4843195;29;20030;-91
2023/09/27 00:46:00;;;;;;;10.27;5.57;;;;;;;14.08;100.00;101814.50;4843271;29;20037;-91
2023/09/27 00:48:26;;;;;;;8.33;5.80;;;;;;;14.04;100.00;101816.00;4842919;29;20480;-91
2023/09/27 00:50:54;;;;;;;9.88;6.78;;;;;;;14.02;100.00;101815.38;4843089;29;20040;-91
2023/09/27 00:53:23;;;;;;;11.57;7.25;;;;;;;14.06;100.00;101811.16;4843851;29;20070;-91
2023/09/27 00:55:49;;;;;;;9.75;7.03;;;;;;;14.02;100.00;101810.78;4842740;29;20034;-91
2023/09/27 00:58:18;;;;;;;10.00;7.35;;;;;;;14.01;100.00;101809.09;4842901;29;20038;-91
2023/09/27 01:00:49;;;;;;;10.23;7.30;;;;;;;14.04;100.00;101813.28;4844088;29;20038;-91
2023/09/27 01:03:15;;;;;;;12.38;7.10;;;;;;;14.03;100.00;101815.16;4844154;29;20037;-91
2023/09/27 01:05:42;;;;;;;12.13;7.18;;;;;;;14.04;100.00;101814.13;4842622;29;20038;-91
2023/09/27 01:08:07;;;;;;;8.23;6.85;;;;;;;14.02;100.00;101816.22;4842523;29;20049;-91
2023/09/27 01:10:34;;;;;;;7.50;5.73;;;;;;;13.98;100.00;101812.25;4841830;29;20030;-91
2023/09/27 01:13:01;;;;;;;7.45;6.13;;;;;;;13.90;100.00;101809.75;4842495;29;20040;-91
2023/09/27 01:15:26;;;;;;;9.45;6.38;;;;;;;13.83;100.00;101814.38;4842276;29;20038;-91
2023/09/27 01:18:02;;;;;;;8.90;6.50;;;;;;;13.79;100.00;101811.25;4843340;29;20038;-91
2023/09/27 01:20:29;;;;;;;8.00;6.20;;;;;;;13.77;100.00;101801.59;4842255;29;20037;-91
2023/09/27 01:23:00;;;;;;;7.10;6.35;;;;;;;13.69;100.00;101787.13;4842132;29;20093;-91
2023/09/27 01:25:28;;;;;;;13.00;6.47;;;;;;;13.69;100.00;101783.56;4842425;29;20045;-90
2023/09/27 01:27:54;;;;;;;9.80;6.72;;;;;;;13.65;100.00;101774.13;4842098;29;20060;-91
2023/09/27 01:30:19;;;;;;;9.03;6.30;;;;;;;13.63;100.00;101765.34;4857706;29;20073;-91
2023/09/27 01:32:47;;;;;;;11.03;6.33;;;;;;;13.63;100.00;101777.09;4843309;29;20602;-90
2023/09/27 01:35:12;;;;;;;10.95;6.43;;;;;;;13.58;100.00;101776.91;4841982;29;20129;-92
2023/09/27 01:37:38;;;;;;;12.00;6.60;;;;;;;13.57;100.00;101774.34;4841840;29;20129;-91
2023/09/27 01:40:09;;;;;;;14.87;7.00;;;;;;;13.54;100.00;101763.88;4841654;29;20065;-91
2023/09/27 01:42:37;;;;;;;17.27;6.78;;;;;;;13.51;100.00;101766.00;4842583;29;20030;-90
2023/09/27 01:45:03;;;;;;;10.90;6.47;;;;;;;13.46;100.00;101778.56;4827240;29;20030;-91
2023/09/27 01:47:31;;;;;;;8.03;6.63;;;;;;;13.42;100.00;101780.91;4842003;29;20041;-91
2023/09/27 01:49:56;;;;;;;9.30;6.90;;;;;;;13.38;100.00;101776.91;4842018;29;20326;-91
2023/09/27 01:52:25;;;;;;;13.63;7.00;;;;;;;13.34;100.00;101778.38;4842503;29;20076;-91
2023/09/27 01:54:50;;;;;;;12.52;6.50;;;;;;;13.30;100.00;101783.41;4841777;29;20132;-91
2023/09/27 01:57:18;;;;;;;10.77;7.33;;;;;;;13.30;100.00;101788.00;4841594;29;20036;-90
2023/09/27 01:59:43;;;;;;;9.70;7.03;;;;;;;13.27;100.00;101775.66;4842097;29;20400;-91
2023/09/27 02:02:09;;;;;;;10.00;7.00;;;;;;;13.22;100.00;101789.06;4841425;29;20046;-91
2023/09/27 02:04:36;;;;;;;11.13;7.07;;;;;;;13.20;100.00;101784.84;4857129;29;20120;-91
2023/09/27 02:07:02;;;;;;;10.05;7.28;;;;;;;13.15;100.00;101782.75;4843207;29;20045;-91
2023/09/27 02:09:27;;;;;;;9.27;7.10;;;;;;;13.12;100.00;101783.19;4841642;29;20038;-91
2023/09/27 02:11:53;;;;;;;10.80;7.00;;;;;;;13.10;100.00;101788.00;4841231;29;20084;-91
2023/09/27 02:14:18;;;;;;;9.90;7.45;;;;;;;13.07;100.00;101772.09;4841381;29;20038;-91
2023/09/27 02:16:47;;;;;;;12.30;8.07;;;;;;;13.07;100.00;101772.09;4842797;29;20048;-91
2023/09/27 02:19:13;;;;;;;12.23;7.38;;;;;;;13.09;100.00;101776.25;4842874;29;20044;-91
2023/09/27 02:21:39;;;;;;;13.75;8.05;;;;;;;13.05;100.00;101777.75;4842736;29;20030;-91
2023/09/27 02:24:09;;;;;;;10.63;7.37;;;;;;;13.06;100.00;101789.47;4857086;29;20033;-92
2023/09/27 02:26:34;;;;;;;10.85;7.55;;;;;;;13.01;100.00;101772.91;4841506;29;20041;-91
2023/09/27 02:29:02;;;;;;;10.07;6.97;;;;;;;13.01;100.00;101787.38;4841299;29;20427;-91
2023/09/27 02:31:28;;;;;;;9.60;7.10;;;;;;;12.98;100.00;101785.06;4841931;29;20038;-91
2023/09/27 02:33:53;;;;;;;11.18;6.53;;;;;;;12.98;100.00;101788.63;4841661;29;20044;-91
2023/09/27 02:36:19;;;;;;;9.90;7.13;;;;;;;12.95;100.00;101780.88;4841818;29;20053;-91
2023/09/27 02:38:44;;;;;;;9.30;6.87;;;;;;;12.95;100.00;101788.22;4841328;29;20122;-91
2023/09/27 02:41:10;;;;;;;11.37;7.03;;;;;;;12.91;100.00;101792.41;4840702;29;20090;-91
2023/09/27 02:43:40;;;;;;;10.00;6.57;;;;;;;12.90;100.00;101785.25;4842386;29;20829;-91
2023/09/27 02:46:08;;;;;;;10.63;7.55;;;;;;;12.89;100.00;101784.44;4841275;29;20038;-91
2023/09/27 02:48:34;;;;;;;12.27;7.70;;;;;;;12.87;100.00;101781.06;4844310;29;20094;-91
2023/09/27 02:50:59;;;;;;;10.60;7.63;;;;;;;12.88;100.00;101781.91;4844812;29;20029;-91
2023/09/27 02:53:27;;;;;;;14.20;8.07;;;;;;;12.89;100.00;101795.34;4846290;29;20080;-91
2023/09/27 02:55:55;;;;;;;9.27;7.35;;;;;;;12.84;100.00;101794.28;4844999;29;20399;-91
2023/09/27 02:58:21;;;;;;;14.88;8.27;;;;;;;12.83;100.00;101777.09;4844612;29;20060;-92
2023/09/27 03:00:48;;;;;;;9.43;7.47;;;;;;;12.81;100.00;101780.03;4846479;29;20094;-91
2023/09/27 03:03:13;;;;;;;8.15;6.53;;;;;;;12.83;100.00;101779.81;4845079;29;20033;-91
2023/09/27 03:05:39;;;;;;;13.77;7.17;;;;;;;12.78;100.00;101783.19;4844920;29;20109;-91
2023/09/27 03:08:07;;;;;;;10.32;6.93;;;;;;;12.76;100.00;101776.25;4844445;29;20037;-90
2023/09/27 03:10:38;;;;;;;9.18;7.20;;;;;;;12.75;100.00;101777.28;4844014;29;20034;-91
2023/09/27 03:13:06;;;;;;;9.75;7.47;;;;;;;12.73;100.00;101773.94;4845665;29;20042;-91
2023/09/27 03:15:34;;;;;;;8.38;6.85;;;;;;;12.74;100.00;101786.50;4844356;29;20038;-91
2023/09/27 03:18:00;;;;;;;11.63;7.27;;;;;;;12.72;100.00;101789.44;4829122;29;20491;-91
2023/09/27 03:20:28;;;;;;;9.77;7.47;;;;;;;12.66;100.00;101779.38;4834443;29;20118;-91
2023/09/27 03:22:53;;;;;;;11.27;7.85;;;;;;;12.66;100.00;101776.66;4841317;29;20129;-91
2023/09/27 03:25:22;;;;;;;13.33;7.30;;;;;;;12.63;100.00;101782.50;4825768;29;20567;-91
2023/09/27 03:27:50;;;;;;;12.52;7.55;;;;;;;12.62;100.00;101792.56;4827040;29;20034;-91
2023/09/27 03:30:22;;;;;;;11.88;7.43;;;;;;;12.60;100.00;101793.81;4825651;29;20041;-91
2023/09/27 03:32:49;;;;;;;12.20;7.50;;;;;;;12.56;100.00;101793.41;4841104;29;20087;-91
2023/09/27 03:35:15;;;;;;;11.18;8.05;;;;;;;12.55;100.00;101799.88;4840876;29;20041;-91
2023/09/27 03:37:41;;;;;;;9.68;7.45;;;;;;;12.50;100.00;101802.34;4841132;29;20026;-91
2023/09/27 03:40:13;;;;;;;11.07;7.33;;;;;;;12.53;100.00;101803.84;4840518;29;20027;-92
2023/09/27 03:42:46;;;;;;;8.77;7.40;;;;;;;12.49;100.00;101810.72;4825845;29;20038;-91
2023/09/27 03:45:14;;;;;;;12.18;7.53;;;;;;;12.48;100.00;101811.78;4841521;29;20034;-91
2023/09/27 03:47:40;;;;;;;12.15;7.47;;;;;;;12.45;100.00;101799.44;4825355;29;20042;-91
2023/09/27 03:50:06;;;;;;;10.98;7.43;;;;;;;12.40;100.00;101785.56;4840806;29;20447;-91
2023/09/27 03:52:34;;;;;;;14.20;8.53;;;;;;;12.37;100.00;101781.41;4825645;29;20034;-91
2023/09/27 03:55:00;;;;;;;9.55;7.07;;;;;;;12.34;100.00;101778.25;4825828;29;20174;-91
2023/09/27 03:57:28;;;;;;;9.43;6.70;;;;;;;12.35;100.00;101779.91;4825761;29;20513;-91
2023/09/27 03:59:57;;;;;;;9.97;7.43;;;;;;;12.33;100.00;101785.56;4824178;29;20791;-91
2023/09/27 04:02:25;;;;;;;9.13;7.07;;;;;;;12.32;100.00;101793.94;4825219;29;20034;-92
2023/09/27 04:04:53;;;;;;;8.25;6.95;;;;;;;12.29;100.00;101798.72;4825534;29;20034;-91
2023/09/27 04:07:21;;;;;;;10.25;6.80;;;;;;;12.26;100.00;101803.75;4840491;29;20042;-91
2023/09/27 04:09:54;;;;;;;10.35;7.20;;;;;;;12.22;100.00;101813.34;4825425;29;20026;-91
2023/09/27 04:12:22;;;;;;;12.10;7.27;;;;;;;12.23;100.00;101820.50;4824863;29;20062;-91
2023/09/27 04:14:49;;;;;;;8.82;7.22;;;;;;;12.21;100.00;101817.09;4824979;29;20031;-91
2023/09/27 04:17:17;;;;;;;11.90;7.57;;;;;;;12.17;100.00;101819.41;4825268;29;20480;-91
2023/09/27 04:19:43;;;;;;;9.95;7.10;;;;;;;12.15;100.00;101801.59;4826275;29;20031;-91
2023/09/27 04:22:08;;;;;;;9.33;7.27;;;;;;;12.11;100.00;101799.28;4825017;29;20352;-91
2023/09/27 04:24:34;;;;;;;11.90;7.47;;;;;;;12.07;100.00;101813.50;4825155;29;20065;-91
2023/09/27 04:27:03;;;;;;;10.30;7.25;;;;;;;12.05;100.00;101831.91;4824922;29;20030;-91
2023/09/27 04:29:32;;;;;;;11.63;7.28;;;;;;;12.04;100.00;101836.50;4840161;29;20026;-91
2023/09/27 04:31:58;;;;;;;10.10;7.27;;;;;;;12.04;100.00;101831.06;4824948;29;20558;-92
2023/09/27 04:34:23;;;;;;;8.57;7.15;;;;;;;12.02;100.00;101832.31;4840205;29;20030;-91
2023/09/27 04:36:51;;;;;;;9.60;6.70;;;;;;;12.02;100.00;101838.59;4825900;29;20035;-91
2023/09/27 04:39:19;;;;;;;9.65;7.13;;;;;;;12.01;100.00;101839.63;4825089;29;20039;-92
2023/09/27 04:41:48;;;;;;;9.05;7.03;;;;;;;12.02;100.00;101848.63;4840152;29;20057;-91
2023/09/27 04:44:14;;;;;;;10.10;7.03;;;;;;;12.00;100.00;101840.69;4824944;29;20388;-92
2023/09/27 04:46:42;;;;;;;11.05;6.68;;;;;;;11.96;100.00;101817.63;4840349;29;20035;-92
2023/09/27 04:49:07;;;;;;;9.90;6.47;;;;;;;11.98;100.00;101795.69;4839563;29;20044;-91
2023/09/27 04:51:36;;;;;;;10.60;7.33;;;;;;;11.99;100.00;101800.06;4840696;29;20125;-91
2023/09/27 04:54:04;;;;;;;8.82;7.28;;;;;;;11.99;100.00;101819.09;4824597;29;20545;-91
2023/09/27 04:56:33;;;;;;;13.85;7.72;;;;;;;11.97;100.00;101822.00;4825827;29;20076;-91
2023/09/27 04:59:01;;;;;;;11.13;7.45;;;;;;;11.96;100.00;101824.94;4839615;29;20034;-91
2023/09/27 05:01:27;;;;;;;11.30;6.97;;;;;;;11.91;100.00;101817.34;4839934;29;20130;-91
2023/09/27 05:04:01;;;;;;;10.20;6.72;;;;;;;11.93;100.00;101823.47;4824498;29;20130;-91
2023/09/27 05:06:26;;;;;;;11.85;6.75;;;;;;;11.93;100.00;101829.75;4824645;29;20045;-90
2023/09/27 05:08:52;;;;;;;9.00;7.37;;;;;;;11.92;100.00;101824.47;4825106;29;20046;-91
2023/09/27 05:11:22;;;;;;;11.68;7.70;;;;;;;11.95;100.00;101829.56;4838596;29;20166;-91
2023/09/27 05:14:06;;;;;;;11.80;7.57;;;;;;;11.91;100.00;101811.91;4824079;29;20034;-91
2023/09/27 05:16:41;;;;;;;12.38;7.43;;;;;;;11.93;100.00;101797.13;4824951;29;20066;-91
2023/09/27 05:19:07;;;;;;;10.10;7.43;;;;;;;11.93;100.00;101802.56;4824326;29;20038;-91
2023/09/27 05:21:32;;;;;;;11.43;7.97;;;;;;;11.89;100.00;101805.84;4839509;29;20037;-86
2023/09/27 05:23:57;;;;;;;10.43;7.20;;;;;;;11.93;100.00;101804.44;4823881;29;20039;-84
2023/09/27 05:26:23;;;;;;;11.97;7.17;;;;;;;11.91;100.00;101795.59;4824233;29;20310;-86
2023/09/27 05:28:48;;;;;;;11.20;6.90;;;;;;;11.87;100.00;101795.19;4838925;29;20030;-86
2023/09/27 05:31:14;;;;;;;10.93;7.30;;;;;;;11.88;100.00;101806.88;4824404;29;20125;-86
2023/09/27 05:33:39;;;;;;;11.07;7.63;;;;;;;11.89;100.00;101816.72;4825083;29;20283;-86
2023/09/27 05:36:05;;;;;;;14.17;8.47;;;;;;;11.90;100.00;101819.25;4824661;29;20072;-85
2023/09/27 05:38:31;;;;;;;11.10;7.70;;;;;;;11.86;100.00;101806.25;4823836;29;20115;-85
2023/09/27 05:40:56;;;;;;;10.73;7.25;;;;;;;11.87;100.00;101810.63;4838403;29;20038;-86
2023/09/27 05:43:22;;;;;;;10.57;7.27;;;;;;;11.90;100.00;101813.81;4823764;29;20034;-85
2023/09/27 05:45:47;;;;;;;10.23;7.10;;;;;;;11.88;100.00;101802.28;4824773;29;20458;-85
2023/09/27 05:48:14;;;;;;;11.30;7.57;;;;;;;11.85;100.00;101793.69;4823488;29;20385;-85
2023/09/27 05:50:44;;;;;;;11.25;8.00;;;;;;;11.89;100.00;101798.53;4823475;29;20099;-85
2023/09/27 05:53:11;;;;;;;12.17;8.40;;;;;;;11.93;100.00;101793.56;4824716;29;20030;-85
2023/09/27 05:55:37;;;;;;;10.57;8.65;;;;;;;11.90;100.00;101791.22;4824814;29;20038;-86
2023/09/27 05:58:02;;;;;;;12.55;7.13;;;;;;;11.95;100.00;101787.94;4823503;29;20078;-86
2023/09/27 06:00:32;;;;;;;12.90;8.10;;;;;;;11.98;100.00;101788.34;4823510;29;20038;-87
2023/09/27 06:02:59;;;;;;;11.60;7.88;;;;;;;12.00;100.00;101788.16;4824716;29;20117;-85
2023/09/27 06:05:25;;;;;;;10.98;8.00;;;;;;;12.02;100.00;101788.81;4824610;29;20084;-85
2023/09/27 06:07:52;;;;;;;12.67;8.27;;;;;;;12.07;100.00;101799.91;4808329;29;20476;-84
2023/09/27 06:10:17;;;;;;;9.82;7.53;;;;;;;12.16;100.00;101790.50;4807471;29;20098;-85
2023/09/27 06:12:43;;;;;;;10.33;7.83;;;;;;;12.29;100.00;101792.47;4823065;29;20452;-85
2023/09/27 06:15:09;;;;;;;15.10;7.75;;;;;;;12.42;100.00;101797.13;4823468;29;20042;-86
2023/09/27 06:17:35;;;;;;;10.90;8.32;;;;;;;12.56;100.00;101793.41;4824353;29;20030;-85
2023/09/27 06:20:12;;;;;;;13.37;8.07;;;;;;;12.69;100.00;101789.84;4824534;29;20389;-85
2023/09/27 06:22:39;;;;;;;16.60;7.97;;;;;;;12.80;100.00;101788.41;4825862;29;20027;-86
2023/09/27 06:25:05;;;;;;;11.80;7.65;;;;;;;12.89;100.00;101781.72;4826998;29;20041;-85
2023/09/27 06:27:31;;;;;;;14.60;8.30;;;;;;;12.97;100.00;101778.78;4826913;29;20388;-85
2023/09/27 06:29:59;;;;;;;16.48;8.10;;;;;;;13.05;100.00;101771.44;4811676;29;20038;-85
2023/09/27 06:32:24;;;;;;;11.27;7.80;;;;;;;13.19;100.00;101775.03;4826479;29;20066;-85
2023/09/27 06:34:52;;;;;;;10.57;7.57;;;;;;;13.29;100.00;101770.81;4826646;29;20115;-85
2023/09/27 06:37:18;;;;;;;13.82;8.32;;;;;;;13.42;100.00;101777.31;4841450;29;20050;-85
2023/09/27 06:39:43;;;;;;;10.13;8.20;;;;;;;13.53;100.00;101771.22;4826331;29;20034;-85
2023/09/27 06:42:09;;;;;;;18.43;8.30;;;;;;;13.67;100.00;101778.34;4826073;29;20046;-85
2023/09/27 06:44:34;;;;;;;13.37;8.80;;;;;;;13.77;100.00;101774.31;4826345;29;20291;-85
2023/09/27 06:47:13;;;;;;;16.57;8.10;;;;;;;13.92;100.00;101772.19;5112125;27;1348874;-85
2023/09/27 06:49:38;;;;;;;10.60;8.35;;;;;;;14.06;100.00;101788.50;5130428;28;20039;-84
2023/09/27 06:52:05;;;;;;;17.40;8.57;;;;;;;14.17;100.00;101802.31;5109819;28;20443;-87
2023/09/27 06:54:38;;;;;;;16.00;8.50;;;;;;;14.20;100.00;101806.47;5109142;28;20038;-87
2023/09/27 06:57:03;;;;;;;14.30;8.33;;;;;;;14.26;100.00;101802.91;5105966;28;20537;-87
2023/09/27 06:59:31;;;;;;;17.95;7.93;;;;;;;14.35;100.00;101804.34;5130302;28;20031;-87
2023/09/27 07:01:57;;;;;;;17.50;8.30;;;;;;;14.43;100.00;101803.25;5130419;28;20039;-87
2023/09/27 07:04:26;;;;;;;19.40;8.30;;;;;;;14.55;100.00;101793.28;5130576;28;20027;-87
2023/09/27 07:06:52;;;;;;;16.27;8.30;;;;;;;14.64;100.00;101790.34;5113351;28;20092;-87
2023/09/27 07:09:20;;;;;;;11.27;7.88;;;;;;;14.74;100.00;101783.34;5130203;28;20399;-86
2023/09/27 07:11:45;;;;;;;13.77;8.63;;;;;;;14.78;100.00;101783.75;5112932;28;20059;-86
2023/09/27 07:14:15;;;;;;;11.30;8.10;;;;;;;14.88;100.00;101788.69;5126396;28;20108;-86
2023/09/27 07:16:41;;;;;;;14.20;7.95;;;;;;;14.90;100.00;101786.59;5128677;28;20062;-86
2023/09/27 07:19:06;;;;;;;14.00;7.90;;;;;;;14.91;100.00;101796.44;5129528;28;20071;-85
2023/09/27 07:21:34;;;;;;;16.73;8.37;;;;;;;14.94;100.00;101798.78;5129582;28;20752;-85
2023/09/27 07:24:02;;;;;;;13.38;7.80;;;;;;;14.94;100.00;101795.19;5112753;28;20078;-85
2023/09/27 07:26:32;;;;;;;12.57;7.77;;;;;;;14.93;100.00;101801.72;5131089;28;20039;-85
2023/09/27 07:28:58;;;;;;;10.07;7.03;;;;;;;14.94;100.00;101801.50;5113194;28;20475;-85
2023/09/27 07:31:26;;;;;;;13.00;7.17;;;;;;;14.94;100.00;101809.69;5130954;28;20028;-84
2023/09/27 07:33:54;;;;;;;10.82;7.82;;;;;;;14.91;100.00;101801.91;5130846;28;20556;-85
2023/09/27 07:36:22;;;;;;;11.80;7.45;;;;;;;14.93;100.00;101804.47;5129921;28;20031;-85
2023/09/27 07:38:47;;;;;;;14.63;8.45;;;;;;;14.96;100.00;101809.47;5129607;28;20113;-85
2023/09/27 07:41:15;;;;;;;8.53;7.13;;;;;;;15.02;100.00;101803.13;5130791;28;20110;-84
2023/09/27 07:43:41;;;;;;;13.35;8.23;;;;;;;15.07;100.00;101800.53;5129503;28;20172;-85
2023/09/27 07:46:12;;;;;;;11.88;7.35;;;;;;;15.14;100.00;101795.03;5112475;28;20150;-85
2023/09/27 07:48:39;;;;;;;14.43;8.65;;;;;;;15.23;100.00;101788.22;5129669;28;20023;-85
2023/09/27 07:51:19;;;;;;;15.90;8.77;;;;;;;15.29;100.00;101789.22;5129600;28;20027;-84
2023/09/27 07:53:45;;;;;;;14.57;8.45;;;;;;;15.39;100.00;101801.31;5129778;28;20032;-85
2023/09/27 07:56:36;;;;;;;;;;;;;;;;;;;;;
2023/09/27 07:59:03;;;;;;;16.65;8.27;;;;;;;15.72;100.00;101802.06;5116948;28;20034;-85
2023/09/27 08:01:29;;;;;;;15.52;8.02;;;;;;;15.90;100.00;101814.94;5098610;28;20060;-84
2023/09/27 08:04:05;;;;;;;15.27;8.17;;;;;;;15.96;100.00;101805.84;5115939;28;20063;-84
2023/09/27 08:06:31;;;;;;;15.07;8.85;;;;;;;16.06;100.00;101811.63;5100816;28;20096;-83
2023/09/27 08:08:57;;;;;;;14.13;8.70;;;;;;;16.13;100.00;101817.00;5115491;28;20467;-84
2023/09/27 08:11:23;;;;;;;16.10;9.40;;;;;;;16.19;100.00;101818.81;5116584;28;20038;-84
2023/09/27 08:13:49;;;;;;;13.47;8.20;;;;;;;16.24;100.00;101818.13;5115013;28;20475;-83
2023/09/27 08:16:14;;;;;;;13.85;8.35;;;;;;;16.35;100.00;101809.16;5116920;28;20103;-84
2023/09/27 08:18:42;;;;;;;16.87;8.70;;;;;;;16.46;100.00;101807.50;5115430;28;20498;-84
2023/09/27 08:21:08;;;;;;;11.13;8.95;;;;;;;16.58;100.00;101827.59;5115309;28;20055;-84
2023/09/27 08:23:36;;;;;;;18.05;9.82;;;;;;;16.67;100.00;101828.94;5115443;28;20066;-83
2023/09/27 08:26:01;;;;;;;15.30;9.07;;;;;;;16.88;100.00;101837.75;5116274;28;20040;-84
2023/09/27 08:28:31;;;;;;;13.20;9.27;;;;;;;17.00;100.00;101832.28;5114905;28;20027;-84
2023/09/27 08:30:58;;;;;;;14.87;8.60;;;;;;;17.14;100.00;101833.75;5115974;28;20035;-84
2023/09/27 08:33:24;;;;;;;12.80;8.70;;;;;;;17.36;100.00;101834.03;5115285;28;20078;-84
2023/09/27 08:35:53;;;;;;;15.10;8.52;;;;;;;17.58;100.00;101827.13;5114665;28;20484;-83
2023/09/27 08:38:21;;;;;;;11.80;8.40;;;;;;;17.74;100.00;101837.38;5115007;28;20072;-84
2023/09/27 08:40:49;;;;;;;10.80;8.18;;;;;;;17.88;100.00;101844.28;5115258;28;20043;-84
2023/09/27 08:43:15;;;;;;;13.40;8.48;;;;;;;17.99;100.00;101845.38;5114488;28;20033;-84
2023/09/27 08:45:42;;;;;;;10.90;8.38;;;;;;;18.14;100.00;101838.53;5114365;28;20055;-84
2023/09/27 08:48:20;;;;;;;13.98;8.18;;;;;;;18.20;100.00;101827.44;5115295;28;20026;-84
2023/09/27 08:50:48;;;;;;;13.50;7.90;;;;;;;18.24;100.00;101823.09;5114792;28;20065;-84
2023/09/27 08:53:14;;;;;;;12.32;8.45;;;;;;;18.34;100.00;101818.91;5114665;28;20031;-84
2023/09/27 08:55:46;;;;;;;12.30;7.80;;;;;;;18.46;100.00;101824.38;5114597;28;20045;-83
2023/09/27 08:58:14;;;;;;;12.57;7.57;;;;;;;18.63;100.00;101818.91;5115488;28;20035;-84
2023/09/27 09:00:41;;;;;;;15.13;7.72;;;;;;;18.90;100.00;101816.44;5097580;28;20038;-84
2023/09/27 09:03:07;;;;;;;14.15;8.00;;;;;;;19.21;100.00;101812.28;5115764;28;20104;-84
2023/09/27 09:05:33;;;;;;;14.48;7.60;;;;;;;19.48;98.93;101814.34;5113985;28;20032;-84
2023/09/27 09:08:01;;;;;;;10.93;7.78;;;;;;;19.81;96.85;101809.88;5114260;28;20085;-84
2023/09/27 09:10:27;;;;;;;13.00;7.53;;;;;;;20.09;95.79;101805.28;5113314;28;20028;-84
2023/09/27 09:12:52;;;;;;;18.55;8.02;;;;;;;20.31;93.94;101803.38;5115858;28;20042;-84
2023/09/27 09:15:34;;;;;;;13.57;7.35;;;;;;;20.43;93.80;101796.88;5114912;28;20032;-84
2023/09/27 09:18:02;;;;;;;10.43;6.30;;;;;;;20.62;91.83;101798.16;5114441;28;20084;-83
2023/09/27 09:20:32;;;;;;;12.32;5.90;;;;;;;20.72;88.89;101799.41;5114143;28;20031;-83
2023/09/27 09:23:02;;;;;;;10.10;6.20;;;;;;;20.82;87.79;101794.81;5114362;28;20043;-84
2023/09/27 09:25:28;;;;;;;8.55;6.40;;;;;;;20.93;87.62;101794.91;5113938;28;20459;-84
2023/09/27 09:28:13;;;;;;;13.15;6.28;;;;;;;21.10;89.03;101800.31;5115633;28;20054;-84
2023/09/27 09:30:40;;;;;;;9.57;6.10;;;;;;;21.24;87.09;101790.47;5114286;28;20122;-84
2023/09/27 09:33:11;;;;;;;11.35;6.68;;;;;;;21.29;87.07;101785.00;5113952;28;20089;-84
2023/09/27 09:35:36;;;;;;;10.18;6.30;;;;;;;21.32;85.93;101791.94;5097362;28;20079;-84
2023/09/27 09:38:04;;;;;;;10.50;6.93;;;;;;;21.34;85.04;101796.06;5113804;28;20032;-83
2023/09/27 09:40:31;;;;;;;10.90;7.23;;;;;;;21.37;84.36;101781.72;5096711;28;20028;-84
2023/09/27 09:42:59;;;;;;;11.15;6.80;;;;;;;21.45;84.22;101776.81;5096929;28;20039;-84
2023/09/27 09:45:24;;;;;;;11.43;6.85;;;;;;;21.55;84.13;101771.38;5097026;28;20034;-84
2023/09/27 09:47:51;;;;;;;8.60;6.50;;;;;;;21.70;83.50;101773.41;5096612;28;20044;-84
2023/09/27 09:50:17;;;;;;;10.55;6.45;;;;;;;21.79;82.57;101774.56;5113498;28;20054;-83
2023/09/27 09:52:59;;;;;;;8.23;6.30;;;;;;;22.09;83.41;101764.75;5114389;28;20479;-81
2023/09/27 09:55:34;;;;;;;11.43;7.17;;;;;;;22.36;79.68;101756.28;5113501;28;20027;-81
2023/09/27 09:58:12;;;;;;;10.73;7.45;;;;;;;22.65;80.44;101749.41;5113432;28;20034;-81
2023/09/27 10:00:46;;;;;;;10.05;6.88;;;;;;;22.84;77.60;101752.44;5113529;28;20077;-81
2023/09/27 10:03:19;;;;;;;9.18;7.13;;;;;;;23.18;76.08;101744.47;5113666;28;20027;-81
2023/09/27 10:05:45;;;;;;;8.13;7.00;;;;;;;23.43;75.68;101742.72;5113450;28;20066;-81
2023/09/27 10:08:12;;;;;;;8.83;6.90;;;;;;;23.54;73.27;101740.78;5096668;28;20043;-81
2023/09/27 10:10:37;;;;;;;9.93;7.05;;;;;;;23.54;72.93;101732.47;5096013;28;20039;-82
2023/09/27 10:13:06;;;;;;;12.03;7.13;;;;;;;23.57;72.75;101741.03;5096337;28;20506;-81
2023/09/27 10:15:33;;;;;;;10.43;7.50;;;;;;;23.78;72.10;101757.59;5113974;28;20031;-81
2023/09/27 10:18:23;;;;;;;9.48;6.95;;;;;;;24.32;73.08;101761.53;5113292;28;20039;-81
2023/09/27 10:21:08;;;;;;;11.57;6.57;;;;;;;24.78;70.62;101757.63;5112709;28;20160;-81
2023/09/27 10:23:46;;;;;;;12.85;7.20;;;;;;;25.00;65.79;101757.97;5097748;28;20075;-81
2023/09/27 10:26:27;;;;;;;9.20;7.30;;;;;;;25.14;67.15;101746.19;5113181;28;20036;-81
2023/09/27 10:29:03;;;;;;;8.75;6.57;;;;;;;25.24;65.41;101728.63;5112913;28;20031;-82
2023/09/27 10:31:29;;;;;;;11.38;6.45;;;;;;;25.04;63.27;101720.19;5112812;28;20032;-81
2023/09/27 10:33:55;;;;;;;10.07;7.10;;;;;;;25.03;63.35;101720.50;5096517;28;20039;-81
2023/09/27 10:36:27;;;;;;;9.43;7.20;;;;;;;25.17;64.69;101731.72;5112921;28;20486;-84
2023/09/27 10:38:52;;;;;;;12.18;6.95;;;;;;;25.38;62.52;101729.63;5113874;28;20484;-84
2023/09/27 10:41:33;;;;;;;10.23;7.10;;;;;;;25.69;64.46;101723.69;5112888;28;20053;-84
2023/09/27 10:44:02;;;;;;;8.13;6.55;;;;;;;25.97;60.87;101718.31;5113809;28;20023;-84
2023/09/27 10:46:48;;;;;;;8.60;7.00;;;;;;;26.41;62.38;101712.44;5113453;28;20047;-84
2023/09/27 10:49:24;;;;;;;16.55;7.00;;;;;;;26.67;58.78;101709.25;5112353;28;20035;-84
2023/09/27 10:51:51;;;;;;;13.17;7.93;;;;;;;26.78;56.53;101705.16;5113358;28;20035;-84
2023/09/27 10:54:24;;;;;;;15.50;6.93;;;;;;;26.83;57.34;101689.50;5112404;28;20035;-84
2023/09/27 10:56:53;;;;;;;12.07;7.10;;;;;;;26.75;56.42;101682.66;5112740;28;20032;-84
2023/09/27 10:59:28;;;;;;;16.17;6.93;;;;;;;26.94;57.47;101688.19;5112331;28;20028;-84
2023/09/27 11:01:59;;;;;;;9.70;6.00;;;;;;;27.36;56.89;101686.28;5113875;28;20028;-84
2023/09/27 11:04:26;;;;;;;13.10;6.43;;;;;;;27.68;54.72;101681.72;5095314;28;20497;-84
2023/09/27 11:06:52;;;;;;;14.18;6.80;;;;;;;27.80;53.94;101682.03;5112640;28;20482;-84
2023/09/27 11:09:22;;;;;;;11.98;6.30;;;;;;;27.83;53.18;101678.59;5096412;28;20055;-84
2023/09/27 11:11:48;;;;;;;14.32;6.70;;;;;;;27.45;53.70;101673.28;5112558;28;20047;-85
2023/09/27 11:14:34;;;;;;;7.30;5.53;;;;;;;27.25;56.13;101668.09;5112287;28;20024;-84
2023/09/27 11:17:22;;;;;;;12.13;6.03;;;;;;;27.11;56.70;101670.88;5112731;28;20024;-85
2023/09/27 11:19:48;;;;;;;9.05;5.38;;;;;;;26.91;53.76;101669.31;5113234;28;20025;-84